This is the latest recevied weather packets stored in our database for station/object IW3HBX-3. If no packets are shown the sender has not sent any weather packets the latest 1 day(s).
| Time | Temp. | Humidity | Pressure | Rain* | Wind** | Luminosity | Snow |
|---|---|---|---|---|---|---|---|
| 1788592158 | 25.56° C | 78% | 1016.8 hPa | 0 mm | - | 178 W/m² | - |
| 1788591858 | 25.56° C | 77% | 1016.8 hPa | 0 mm | - | 197 W/m² | - |
| 1788591558 | 25° C | 78% | 1016.7 hPa | 0 mm | - | 163 W/m² | - |
| 1788591258 | 25° C | 80% | 1016.8 hPa | 0 mm | - | 214 W/m² | - |
| 1788590657 | 24.44° C | 80% | 1016.8 hPa | 0 mm | - | 143 W/m² | - |
| 1788590357 | 23.89° C | 82% | 1016.8 hPa | 0 mm | - | 147 W/m² | - |
| 1788590057 | 23.89° C | 82% | 1016.8 hPa | 0 mm | - | 109 W/m² | - |
| 1788589757 | 23.89° C | 83% | 1016.6 hPa | 0 mm | - | 89 W/m² | - |
| 1788589457 | 23.89° C | 81% | 1016.6 hPa | 0 mm | - | 113 W/m² | - |
| 1788589341 | 23.89° C | 81% | 1016.5 hPa | 0 mm | - | 134 W/m² | - |
| 1788589341 | 23.89° C | 80% | 1016.6 hPa | 0 mm | - | 135 W/m² | - |
| 1788589157 | 23.89° C | 81% | 1016.5 hPa | 0 mm | - | 134 W/m² | - |
| 1788588857 | 23.89° C | 80% | 1016.6 hPa | 0 mm | - | 135 W/m² | - |
| 1788588557 | 23.89° C | 82% | 1016.4 hPa | 0 mm | - | 128 W/m² | - |
| 1788588257 | 23.33° C | 83% | 1016.6 hPa | 0 mm | - | 115 W/m² | - |
| 1788587956 | 22.78° C | 85% | 1016.6 hPa | 0 mm | - | 103 W/m² | - |
| 1788587657 | 22.22° C | 88% | 1016.7 hPa | 0 mm | - | 91 W/m² | - |
| 1788587356 | 22.78° C | 87% | 1016.7 hPa | 0 mm | - | 77 W/m² | - |
| 1788587056 | 22.78° C | 86% | 1016.6 hPa | 0 mm | - | 67 W/m² | - |
| 1788586756 | 22.22° C | 87% | 1016.6 hPa | 0 mm | - | 58 W/m² | - |
| 1788586456 | 22.78° C | 87% | 1016.4 hPa | 0 mm | - | 52 W/m² | - |
| 1788586156 | 22.78° C | 85% | 1016.3 hPa | 0 mm | - | 44 W/m² | - |
| 1788585856 | 22.22° C | 87% | 1016.3 hPa | 0 mm | - | 38 W/m² | - |
| 1788585556 | 21.67° C | 88% | 1016.3 hPa | 0 mm | - | 34 W/m² | - |
| 1788585256 | 21.67° C | 90% | 1016.1 hPa | 0 mm | - | 28 W/m² | - |
* Rain latest hour (hover to see other rain measurements)
** Current wind speed in m/s (hover to see current wind gust speed)